createdAt,value
2023-05-24T00:01:48.786Z,97758.72
2023-05-24T00:04:53.447Z,97752.16
2023-05-24T00:07:56.450Z,97755.03
2023-05-24T00:10:59.511Z,97750.94
2023-05-24T00:14:04.614Z,97745.28
2023-05-24T00:17:07.388Z,97750.88
2023-05-24T00:20:12.556Z,97747.63
2023-05-24T00:23:15.363Z,97748.28
2023-05-24T00:26:18.332Z,97740.50
2023-05-24T00:29:31.434Z,97740.91
2023-05-24T00:32:36.273Z,97751.50
2023-05-24T00:35:39.604Z,97742.25
2023-05-24T00:38:42.547Z,97743.28
2023-05-24T00:41:45.476Z,97752.13
2023-05-24T00:44:48.434Z,97743.84
2023-05-24T00:47:51.251Z,97750.97
2023-05-24T00:50:54.142Z,97750.41
2023-05-24T00:53:57.263Z,97752.22
2023-05-24T00:57:00.327Z,97753.31
2023-05-24T01:00:05.718Z,97758.16
2023-05-24T01:03:10.770Z,97755.63
2023-05-24T01:06:13.865Z,97763.09
2023-05-24T01:09:28.811Z,97758.41
2023-05-24T01:12:47.553Z,97765.47
2023-05-24T01:16:21.986Z,97768.75
2023-05-24T01:19:49.522Z,97777.19
2023-05-24T01:23:21.944Z,97762.16
2023-05-24T01:26:54.647Z,97773.06
2023-05-24T01:29:58.715Z,97778.41
2023-05-24T01:33:03.499Z,97777.63
2023-05-24T01:36:06.850Z,97768.19
2023-05-24T01:39:10.252Z,97773.06
2023-05-24T01:42:22.527Z,97769.53
2023-05-24T01:45:56.996Z,97768.84
2023-05-24T01:49:20.745Z,97775.41
2023-05-24T01:52:27.091Z,97769.09
2023-05-24T01:55:31.956Z,97764.47
2023-05-24T01:58:35.613Z,97763.94
2023-05-24T02:01:38.995Z,97764.31
2023-05-24T02:04:42.174Z,97763.44
2023-05-24T02:07:44.903Z,97768.66
2023-05-24T02:10:47.702Z,97763.78
2023-05-24T02:13:50.409Z,97765.25
2023-05-24T02:16:53.612Z,97771.97
2023-05-24T02:19:56.693Z,97769.47
2023-05-24T02:23:00.449Z,97776.03
2023-05-24T02:26:03.155Z,97774.69
2023-05-24T02:29:06.611Z,97784.91
2023-05-24T02:32:09.599Z,97781.72
2023-05-24T02:35:12.719Z,97781.94
2023-05-24T02:38:15.615Z,97789.66
2023-05-24T02:41:19.566Z,97798.00
2023-05-24T02:44:22.477Z,97786.28
2023-05-24T02:47:27.333Z,97785.47
2023-05-24T02:50:30.222Z,97784.50
2023-05-24T02:53:33.742Z,97798.16
2023-05-24T02:56:37.767Z,97793.41
2023-05-24T02:59:40.613Z,97811.38
2023-05-24T03:02:43.457Z,97812.19
2023-05-24T03:05:46.458Z,97804.88
2023-05-24T03:08:50.143Z,97809.53
2023-05-24T03:11:54.779Z,97807.28
2023-05-24T03:14:57.792Z,97816.94
2023-05-24T03:18:01.277Z,97815.72
2023-05-24T03:21:04.508Z,97819.03
2023-05-24T03:24:07.674Z,97815.72
2023-05-24T03:27:10.902Z,97813.66
2023-05-24T03:30:13.973Z,97825.59
2023-05-24T03:33:25.757Z,97821.78
2023-05-24T03:36:31.504Z,97823.50
2023-05-24T03:39:34.436Z,97816.38
2023-05-24T03:42:51.278Z,97820.75
2023-05-24T03:45:56.017Z,97823.53
2023-05-24T03:48:58.955Z,97823.63
2023-05-24T03:52:01.814Z,97828.75
2023-05-24T03:55:05.022Z,97824.00
2023-05-24T03:58:07.758Z,97829.88
2023-05-24T04:01:21.936Z,97828.44
2023-05-24T04:04:32.499Z,97832.00
2023-05-24T04:07:35.406Z,97838.91
2023-05-24T04:10:38.533Z,97840.41
2023-05-24T04:13:41.749Z,97841.00
2023-05-24T04:16:45.336Z,97834.41
2023-05-24T04:19:48.389Z,97851.78
2023-05-24T04:22:51.986Z,97859.78
2023-05-24T04:25:55.144Z,97856.09
2023-05-24T04:28:58.334Z,97868.69
2023-05-24T04:32:01.480Z,97871.75
2023-05-24T04:35:04.856Z,97871.22
2023-05-24T04:38:08.104Z,97866.22
2023-05-24T04:41:12.242Z,97866.44
2023-05-24T04:44:15.295Z,97866.53
2023-05-24T04:47:18.178Z,97864.66
2023-05-24T04:50:21.001Z,97861.81
2023-05-24T04:53:24.106Z,97873.16
2023-05-24T04:56:27.419Z,97876.38
2023-05-24T04:59:30.575Z,97873.63
2023-05-24T05:02:33.471Z,97875.00
2023-05-24T05:05:36.704Z,97879.00
2023-05-24T05:08:39.606Z,97871.81
2023-05-24T05:11:42.402Z,97885.75
2023-05-24T05:14:45.396Z,97881.91
2023-05-24T05:17:48.421Z,97888.69
2023-05-24T05:20:52.287Z,97898.47
2023-05-24T05:23:55.083Z,97902.34
2023-05-24T05:26:58.211Z,97900.78
2023-05-24T05:30:01.211Z,97899.94
2023-05-24T05:33:06.416Z,97917.44
2023-05-24T05:36:09.222Z,97923.34
2023-05-24T05:39:12.218Z,97903.66
2023-05-24T05:42:14.959Z,97912.00
2023-05-24T05:45:17.711Z,97913.66
2023-05-24T05:48:20.430Z,97903.25
2023-05-24T05:51:23.125Z,97917.91
2023-05-24T05:54:26.903Z,97915.53
2023-05-24T05:57:29.729Z,97911.47
2023-05-24T06:00:32.510Z,97915.75
2023-05-24T06:03:35.484Z,97911.03
2023-05-24T06:06:38.399Z,97914.59
2023-05-24T06:09:41.587Z,97905.78
2023-05-24T06:12:44.817Z,97908.94
2023-05-24T06:15:47.939Z,97907.75
2023-05-24T06:19:04.671Z,97916.94
2023-05-24T06:22:09.156Z,97920.19
2023-05-24T06:25:15.201Z,97926.59
2023-05-24T06:28:18.290Z,97930.88
2023-05-24T06:31:21.466Z,97940.06
2023-05-24T06:34:24.675Z,97941.00
2023-05-24T06:37:31.810Z,97944.81
2023-05-24T06:40:34.603Z,97938.78
2023-05-24T06:43:37.506Z,97948.25
2023-05-24T06:46:41.207Z,97943.25
2023-05-24T06:49:44.217Z,97941.31
2023-05-24T06:52:46.985Z,97951.88
2023-05-24T06:55:50.007Z,97955.34
2023-05-24T06:58:53.160Z,97970.78
2023-05-24T07:01:59.509Z,97971.66
2023-05-24T07:05:04.055Z,97979.38
2023-05-24T07:08:07.491Z,97985.13
2023-05-24T07:11:10.659Z,97988.59
2023-05-24T07:14:13.723Z,97981.53
2023-05-24T07:17:16.695Z,97983.22
2023-05-24T07:20:19.816Z,97983.72
2023-05-24T07:23:22.738Z,97984.66
2023-05-24T07:26:25.780Z,97988.78
2023-05-24T07:29:28.918Z,97989.09
2023-05-24T07:32:33.558Z,97996.84
2023-05-24T07:35:36.815Z,97999.59
2023-05-24T07:38:39.979Z,98010.88
2023-05-24T07:41:43.062Z,98003.59
2023-05-24T07:44:46.199Z,98005.59
2023-05-24T07:47:49.082Z,98012.28
2023-05-24T07:50:53.195Z,98017.31
2023-05-24T07:53:56.523Z,98016.88
2023-05-24T07:56:59.569Z,98018.06
2023-05-24T08:00:10.507Z,98005.38
2023-05-24T08:03:17.847Z,98011.88
2023-05-24T08:06:21.121Z,98018.13
2023-05-24T08:09:24.106Z,98018.88
2023-05-24T08:12:26.942Z,98012.97
2023-05-24T08:15:29.913Z,98018.84
2023-05-24T08:18:33.577Z,98014.28
2023-05-24T08:21:37.695Z,98014.66
2023-05-24T08:24:40.957Z,98015.47
2023-05-24T08:27:43.944Z,98016.56
2023-05-24T08:30:46.869Z,98008.06
2023-05-24T08:33:52.718Z,98010.94
2023-05-24T08:36:56.430Z,98002.19
2023-05-24T08:39:59.967Z,97993.03
2023-05-24T08:43:03.304Z,97993.47
2023-05-24T08:46:06.961Z,97995.56
2023-05-24T08:49:12.941Z,98005.69
2023-05-24T08:52:16.824Z,98002.47
2023-05-24T08:55:20.134Z,97999.41
2023-05-24T08:58:22.918Z,98008.44
2023-05-24T09:01:27.748Z,98017.81
2023-05-24T09:04:34.362Z,98022.19
2023-05-24T09:07:37.712Z,98029.06
2023-05-24T09:10:53.174Z,98037.84
2023-05-24T09:13:58.300Z,98046.13
2023-05-24T09:17:01.482Z,98051.66
2023-05-24T09:20:07.540Z,98059.53
2023-05-24T09:23:11.533Z,98059.72
2023-05-24T09:26:14.576Z,98054.19
2023-05-24T09:29:17.396Z,98047.59
2023-05-24T09:32:24.603Z,98045.78
2023-05-24T09:35:28.668Z,98050.22
2023-05-24T09:38:31.703Z,98041.75
2023-05-24T09:41:34.696Z,98047.63
2023-05-24T09:44:37.722Z,98056.31
2023-05-24T09:47:41.723Z,98061.72
2023-05-24T09:50:47.816Z,98055.22
2023-05-24T09:53:53.050Z,98052.13
2023-05-24T09:56:56.263Z,98043.75
2023-05-24T10:00:15.040Z,98050.22
2023-05-24T10:03:18.163Z,98045.59
2023-05-24T10:06:21.951Z,98050.41
2023-05-24T10:09:25.613Z,98041.75
2023-05-24T10:12:31.685Z,98051.06
2023-05-24T10:15:34.721Z,98042.50
2023-05-24T10:18:37.654Z,98052.66
2023-05-24T10:21:43.557Z,98044.22
2023-05-24T10:24:51.206Z,98055.00
2023-05-24T10:28:03.899Z,98050.13
2023-05-24T10:31:13.833Z,98051.16
2023-05-24T10:34:19.138Z,98047.47
2023-05-24T10:37:22.037Z,98045.88
2023-05-24T10:40:27.948Z,98054.38
2023-05-24T10:43:31.087Z,98046.56
2023-05-24T10:46:34.333Z,98061.16
2023-05-24T10:49:38.257Z,98056.63
2023-05-24T10:52:42.315Z,98061.56
2023-05-24T10:55:59.051Z,98057.06
2023-05-24T10:59:06.616Z,98054.56
2023-05-24T11:02:14.231Z,98066.72
2023-05-24T11:05:17.532Z,98064.50
2023-05-24T11:08:23.674Z,98050.81
2023-05-24T11:11:32.065Z,98049.38
2023-05-24T11:14:42.984Z,98053.47
2023-05-24T11:18:14.285Z,98054.44
2023-05-24T11:21:17.550Z,98049.97
2023-05-24T11:24:22.386Z,98045.56
2023-05-24T11:27:26.034Z,98031.13
2023-05-24T11:30:29.281Z,98044.84
2023-05-24T11:33:32.525Z,98034.13
2023-05-24T11:36:37.836Z,98027.13
2023-05-24T11:39:40.808Z,98036.59
2023-05-24T11:42:44.955Z,98033.63
2023-05-24T11:45:50.261Z,98037.94
2023-05-24T11:49:00.209Z,98027.63
2023-05-24T11:52:04.271Z,98022.97
2023-05-24T11:55:08.273Z,98017.88
2023-05-24T11:58:17.549Z,98024.47
2023-05-24T12:01:27.760Z,98020.13
2023-05-24T12:04:31.577Z,98018.78
2023-05-24T12:07:34.882Z,98025.94
2023-05-24T12:10:38.954Z,98028.09
2023-05-24T12:13:42.005Z,98025.66
2023-05-24T12:16:45.839Z,98034.09
2023-05-24T12:19:52.496Z,98024.22
2023-05-24T12:22:56.833Z,98028.28
2023-05-24T12:26:03.421Z,98020.19
2023-05-24T12:29:06.427Z,98026.22
2023-05-24T12:32:15.208Z,98027.72
2023-05-24T12:35:19.011Z,98024.66
2023-05-24T12:38:25.882Z,98024.31
2023-05-24T12:41:32.032Z,98027.03
2023-05-24T12:44:37.036Z,98028.59
2023-05-24T12:47:39.830Z,98033.47
2023-05-24T12:50:43.106Z,98033.22
2023-05-24T12:53:46.897Z,98030.41
2023-05-24T12:56:50.649Z,98026.56
2023-05-24T12:59:54.208Z,98033.44
2023-05-24T13:02:59.369Z,98024.66
2023-05-24T13:06:02.622Z,98031.28
2023-05-24T13:09:06.946Z,98033.63
2023-05-24T13:12:10.364Z,98021.78
2023-05-24T13:15:14.387Z,98025.25
2023-05-24T13:18:17.664Z,98022.38
2023-05-24T13:21:20.970Z,98019.13
2023-05-24T13:24:23.780Z,98026.06
2023-05-24T13:27:27.031Z,98014.13
2023-05-24T13:30:30.392Z,98017.69
2023-05-24T13:33:36.255Z,98019.25
2023-05-24T13:36:39.691Z,98018.41
2023-05-24T13:39:42.940Z,98016.78
2023-05-24T13:42:45.934Z,98018.50
2023-05-24T13:45:48.887Z,98009.13
2023-05-24T13:48:51.927Z,98014.16
2023-05-24T13:51:58.228Z,98011.25
2023-05-24T13:55:05.141Z,98023.16
2023-05-24T13:58:08.219Z,98022.94
2023-05-24T14:01:11.231Z,98013.50
2023-05-24T14:04:14.322Z,98017.44
2023-05-24T14:07:17.182Z,98017.00
2023-05-24T14:10:21.586Z,98017.22
2023-05-24T14:14:13.753Z,98009.81
2023-05-24T14:16:52.277Z,98017.88
2023-05-24T14:19:55.512Z,98027.34
2023-05-24T14:22:58.676Z,98020.78
2023-05-24T14:26:02.198Z,98018.56
2023-05-24T14:29:05.941Z,98020.91
2023-05-24T14:32:10.295Z,98020.66
2023-05-24T14:35:13.082Z,98024.44
2023-05-24T14:38:16.091Z,98020.03
2023-05-24T14:41:19.129Z,98011.09
2023-05-24T14:44:22.065Z,98027.41
2023-05-24T14:47:25.239Z,98022.88
2023-05-24T14:50:28.067Z,98019.34
2023-05-24T14:53:30.997Z,98017.44
2023-05-24T14:56:34.293Z,98031.16
2023-05-24T14:59:37.316Z,98029.97
2023-05-24T15:02:40.399Z,98032.09
2023-05-24T15:05:43.638Z,98027.16
2023-05-24T15:08:47.068Z,98030.69
2023-05-24T15:11:50.448Z,98031.66
2023-05-24T15:14:53.550Z,98036.25
2023-05-24T15:17:57.672Z,98031.66
2023-05-24T15:21:00.711Z,98030.13
2023-05-24T15:24:03.745Z,98024.06
2023-05-24T15:27:06.766Z,98037.84
2023-05-24T15:30:09.603Z,98030.13
2023-05-24T15:33:12.708Z,98037.16
2023-05-24T15:36:17.664Z,98039.81
2023-05-24T15:39:21.581Z,98029.56
2023-05-24T15:42:25.666Z,98038.25
2023-05-24T15:45:28.657Z,98038.38
2023-05-24T15:48:31.870Z,98034.22
2023-05-24T15:52:03.070Z,98029.19
2023-05-24T15:54:57.740Z,98043.91
2023-05-24T15:58:01.444Z,98036.69
2023-05-24T16:01:04.717Z,98039.72
2023-05-24T16:04:07.933Z,98032.13
2023-05-24T16:07:12.336Z,98044.78
2023-05-24T16:10:15.302Z,98040.56
2023-05-24T16:13:18.258Z,98042.03
2023-05-24T16:16:23.999Z,98029.41
2023-05-24T16:19:27.100Z,98033.09
2023-05-24T16:22:30.488Z,98051.94
2023-05-24T16:25:33.233Z,98050.00
2023-05-24T16:28:36.550Z,98063.81
2023-05-24T16:31:39.719Z,98058.50
2023-05-24T16:34:56.080Z,98063.81
2023-05-24T16:38:00.234Z,98064.03
2023-05-24T16:41:03.409Z,98064.84
2023-05-24T16:44:06.762Z,98074.28
2023-05-24T16:47:09.850Z,98077.13
2023-05-24T16:50:15.800Z,98074.66
2023-05-24T16:53:20.853Z,98080.00
2023-05-24T16:56:23.917Z,98082.03
2023-05-24T16:59:26.930Z,98085.75
2023-05-24T17:02:30.099Z,98091.47
2023-05-24T17:05:36.166Z,98085.94
2023-05-24T17:08:39.179Z,98086.94
2023-05-24T17:11:41.932Z,98087.19
2023-05-24T17:14:45.870Z,98096.94
2023-05-24T17:17:48.761Z,98095.78
2023-05-24T17:20:52.381Z,98098.13
2023-05-24T17:23:56.316Z,98097.84
2023-05-24T17:26:59.701Z,98104.22
2023-05-24T17:30:02.994Z,98104.78
2023-05-24T17:33:06.146Z,98112.97
2023-05-24T17:36:10.080Z,98115.38
2023-05-24T17:39:13.354Z,98124.59
2023-05-24T17:42:17.924Z,98123.56
2023-05-24T17:45:21.297Z,98129.56
2023-05-24T17:48:26.288Z,98140.72
2023-05-24T17:51:29.390Z,98141.09
2023-05-24T17:54:32.378Z,98145.91
2023-05-24T17:57:35.874Z,98152.19
2023-05-24T18:00:38.936Z,98147.72
2023-05-24T18:03:43.182Z,98154.38
2023-05-24T18:06:46.378Z,98156.81
2023-05-24T18:09:49.257Z,98152.44
2023-05-24T18:12:52.251Z,98161.31
2023-05-24T18:15:57.471Z,98164.78
2023-05-24T18:19:02.996Z,98164.72
2023-05-24T18:22:06.560Z,98169.03
2023-05-24T18:25:09.956Z,98166.72
2023-05-24T18:28:13.312Z,98166.53
2023-05-24T18:31:16.647Z,98166.72
2023-05-24T18:34:19.984Z,98174.56
2023-05-24T18:37:23.580Z,98163.00
2023-05-24T18:40:26.759Z,98181.16
2023-05-24T18:43:30.110Z,98174.06
2023-05-24T18:46:33.559Z,98181.22
2023-05-24T18:49:37.327Z,98190.59
2023-05-24T18:52:40.697Z,98193.78
2023-05-24T18:55:43.789Z,98197.94
2023-05-24T18:58:50.209Z,98196.63
2023-05-24T19:01:58.579Z,98204.56
2023-05-24T19:05:01.795Z,98196.00
2023-05-24T19:08:04.788Z,98208.06
2023-05-24T19:11:08.131Z,98209.91
2023-05-24T19:14:12.917Z,98209.91
2023-05-24T19:17:15.849Z,98211.72
2023-05-24T19:20:18.809Z,98216.34
2023-05-24T19:23:21.816Z,98225.97
2023-05-24T19:26:24.804Z,98226.28
2023-05-24T19:29:28.354Z,98223.34
2023-05-24T19:32:31.584Z,98223.97
2023-05-24T19:35:35.402Z,98224.63
2023-05-24T19:38:38.310Z,98231.25
2023-05-24T19:41:41.719Z,98226.47
2023-05-24T19:44:44.636Z,98218.56
2023-05-24T19:47:47.489Z,98224.16
2023-05-24T19:50:51.049Z,98218.72
2023-05-24T19:53:53.746Z,98222.34
2023-05-24T19:56:58.215Z,98224.31
2023-05-24T20:00:01.346Z,98224.34
2023-05-24T20:03:06.458Z,98219.22
2023-05-24T20:06:09.259Z,98220.19
2023-05-24T20:09:12.372Z,98224.81
2023-05-24T20:12:15.435Z,98224.97
2023-05-24T20:15:18.414Z,98221.34
2023-05-24T20:18:21.144Z,98227.94
2023-05-24T20:21:24.101Z,98223.13
2023-05-24T20:24:27.207Z,98232.22
2023-05-24T20:27:30.057Z,98225.78
2023-05-24T20:30:33.814Z,98223.31
2023-05-24T20:33:38.581Z,98217.66
2023-05-24T20:36:43.561Z,98224.25
2023-05-24T20:39:49.700Z,98229.84
2023-05-24T20:42:52.976Z,98233.78
2023-05-24T20:45:55.932Z,98235.88
2023-05-24T20:48:58.834Z,98225.19
2023-05-24T20:52:02.037Z,98228.84
2023-05-24T20:55:05.237Z,98227.78
2023-05-24T20:58:08.104Z,98232.09
2023-05-24T21:01:11.211Z,98230.13
2023-05-24T21:04:14.814Z,98224.84
2023-05-24T21:07:17.718Z,98229.44
2023-05-24T21:10:23.321Z,98226.47
2023-05-24T21:13:27.390Z,98231.91
2023-05-24T21:16:30.419Z,98235.50
2023-05-24T21:19:33.134Z,98225.47
2023-05-24T21:22:35.988Z,98229.91
2023-05-24T21:25:39.164Z,98233.00
2023-05-24T21:28:42.167Z,98241.41
2023-05-24T21:31:45.105Z,98250.44
2023-05-24T21:34:48.006Z,98252.97
2023-05-24T21:37:50.951Z,98263.00
2023-05-24T21:40:53.908Z,98260.34
2023-05-24T21:43:56.821Z,98261.59
2023-05-24T21:46:59.619Z,98257.03
2023-05-24T21:50:02.500Z,98256.34
2023-05-24T21:53:05.335Z,98262.59
2023-05-24T21:56:08.205Z,98261.28
2023-05-24T21:59:11.035Z,98271.50
2023-05-24T22:02:15.085Z,98268.50
2023-05-24T22:05:18.620Z,98281.03
2023-05-24T22:08:21.567Z,98285.75
2023-05-24T22:11:24.547Z,98278.00
2023-05-24T22:14:27.561Z,98272.75
2023-05-24T22:17:32.985Z,98285.59
2023-05-24T22:20:36.985Z,98285.22
2023-05-24T22:23:40.110Z,98300.72
2023-05-24T22:26:47.373Z,98293.44
2023-05-24T22:29:50.298Z,98297.13
2023-05-24T22:32:53.375Z,98299.44
2023-05-24T22:35:56.201Z,98299.38
2023-05-24T22:39:00.156Z,98307.66
2023-05-24T22:42:03.234Z,98298.56
2023-05-24T22:45:07.255Z,98295.75
2023-05-24T22:48:10.734Z,98291.97
2023-05-24T22:51:13.795Z,98287.53
2023-05-24T22:54:17.349Z,98291.13
2023-05-24T22:57:23.376Z,98285.03
2023-05-24T23:00:26.941Z,98278.91
2023-05-24T23:03:29.912Z,98281.38
2023-05-24T23:06:32.605Z,98276.63
2023-05-24T23:09:35.621Z,98277.72
2023-05-24T23:12:42.704Z,98292.38
2023-05-24T23:15:45.610Z,98290.59
2023-05-24T23:18:48.402Z,98287.41
2023-05-24T23:21:52.610Z,98277.19
2023-05-24T23:24:55.575Z,98284.63
2023-05-24T23:27:58.342Z,98279.34
2023-05-24T23:31:01.303Z,98280.69
2023-05-24T23:34:04.917Z,98295.66
2023-05-24T23:37:08.077Z,98297.94
2023-05-24T23:40:11.682Z,98290.41
2023-05-24T23:43:14.691Z,98298.88
2023-05-24T23:46:17.647Z,98297.34
2023-05-24T23:49:20.970Z,98295.34
2023-05-24T23:52:25.448Z,98284.00
2023-05-24T23:55:28.489Z,98294.41
2023-05-24T23:58:32.382Z,98293.75
